McClure, Ohio
Current Conditions -  °F | °C
As of 10:52 PM on Friday 28 Nov 2014 (Local Time) from KTOL Reporting Station
Broken Clouds Broken Clouds  
Wind Chill: 23°   Ceiling: 10000
Heat Index: 29°   Visibility: 10mi
Dew Point: 22°   Wind: 6mph
Humidity: 75%   Direction: 170°S
Pressure: 30.07"   Gusts: NA
Location:  41.37°N, 83.94°W
Report Text: KTOL 290352Z 17005KT 10SM BKN100 M02/M06 A3007 RMK AO2 SLP190 T10171056
Loading
Personal Weather Stations






























Interactive Weather Map New forecast layout! Learn more

10-Day Weather Forecast

Advertisements
Track Severe Weather on mobile